< < Back
Terminal Aerodrome Forecast


Current Version              Previous Versions:   1  2  3  4  5  6  7  8  9  

Terminal Aerodrome Forecast

579
FTUS42 KFFC 290529
TAFFTY
TAF
KFTY 290529Z 2906/3006 00000KT P6SM FEW250
     FM291500 26005KT P6SM FEW045
     FM300100 00000KT P6SM FEW250=

Latest METAR

690
SAUS70 KWBC 291200
MTRFTY
METAR KFTY 291153Z 00000KT 10SM CLR 16/14 A3003 RMK AO2 SLP162 T01560139
10172 20144 52012


USA.gov is the U.S. government's official web portal to all federal, state and local government web resources and services.